sensor_id;sensor_type;location;lat;lon;timestamp;pressure;altitude;pressure_sealevel;temperature;humidity
7109;BME280;29079;41.930;25.558;2024-02-15T00:02:22;99932.09;;;7.39;80.99
7109;BME280;29079;41.930;25.558;2024-02-15T00:05:10;99936.25;;;7.56;83.12
7109;BME280;29079;41.930;25.558;2024-02-15T00:08:00;99935.69;;;7.38;82.16
7109;BME280;29079;41.930;25.558;2024-02-15T00:10:48;99943.13;;;7.20;81.43
7109;BME280;29079;41.930;25.558;2024-02-15T00:13:36;99944.22;;;7.30;82.36
7109;BME280;29079;41.930;25.558;2024-02-15T00:16:24;99945.91;;;7.31;86.88
7109;BME280;29079;41.930;25.558;2024-02-15T00:19:14;99951.97;;;7.33;82.54
7109;BME280;29079;41.930;25.558;2024-02-15T00:22:03;99948.22;;;7.23;82.06
7109;BME280;29079;41.930;25.558;2024-02-15T00:24:53;99932.19;;;7.24;80.18
7109;BME280;29079;41.930;25.558;2024-02-15T00:27:41;99939.09;;;7.27;81.30
7109;BME280;29079;41.930;25.558;2024-02-15T00:30:29;99929.41;;;7.13;81.67
7109;BME280;29079;41.930;25.558;2024-02-15T00:33:18;99932.50;;;7.07;81.31
7109;BME280;29079;41.930;25.558;2024-02-15T00:36:07;99935.72;;;7.25;85.54
7109;BME280;29079;41.930;25.558;2024-02-15T00:38:55;99938.91;;;7.43;85.86
7109;BME280;29079;41.930;25.558;2024-02-15T00:41:45;99937.00;;;7.32;82.26
7109;BME280;29079;41.930;25.558;2024-02-15T00:44:33;99944.84;;;7.21;85.53
7109;BME280;29079;41.930;25.558;2024-02-15T00:47:21;99942.94;;;7.48;84.49
7109;BME280;29079;41.930;25.558;2024-02-15T00:50:09;99927.94;;;6.96;82.76
7109;BME280;29079;41.930;25.558;2024-02-15T00:52:58;99926.66;;;6.89;83.83
7109;BME280;29079;41.930;25.558;2024-02-15T00:55:46;99941.03;;;7.25;85.55
7109;BME280;29079;41.930;25.558;2024-02-15T00:58:35;99934.66;;;7.14;82.49
7109;BME280;29079;41.930;25.558;2024-02-15T01:01:23;99940.13;;;6.86;82.59
7109;BME280;29079;41.930;25.558;2024-02-15T01:04:12;99934.19;;;6.95;83.66
7109;BME280;29079;41.930;25.558;2024-02-15T01:07:00;99925.72;;;7.15;86.48
7109;BME280;29079;41.930;25.558;2024-02-15T01:09:48;99939.72;;;7.05;82.10
7109;BME280;29079;41.930;25.558;2024-02-15T01:12:36;99940.84;;;6.88;82.25
7109;BME280;29079;41.930;25.558;2024-02-15T01:15:26;99931.66;;;7.06;83.57
7109;BME280;29079;41.930;25.558;2024-02-15T01:18:14;99938.22;;;7.01;81.53
7109;BME280;29079;41.930;25.558;2024-02-15T01:21:02;99927.06;;;6.95;80.56
7109;BME280;29079;41.930;25.558;2024-02-15T01:23:50;99931.09;;;7.01;80.92
7109;BME280;29079;41.930;25.558;2024-02-15T01:26:40;99938.13;;;7.02;83.77
7109;BME280;29079;41.930;25.558;2024-02-15T01:29:28;99936.34;;;7.15;81.35
7109;BME280;29079;41.930;25.558;2024-02-15T01:32:18;99936.28;;;6.77;81.15
7109;BME280;29079;41.930;25.558;2024-02-15T01:35:06;99912.31;;;6.51;81.25
7109;BME280;29079;41.930;25.558;2024-02-15T01:37:56;99931.63;;;6.93;83.07
7109;BME280;29079;41.930;25.558;2024-02-15T01:40:47;99929.31;;;7.02;83.34
7109;BME280;29079;41.930;25.558;2024-02-15T01:43:35;99946.94;;;7.15;84.99
7109;BME280;29079;41.930;25.558;2024-02-15T01:46:23;99937.41;;;7.26;86.81
7109;BME280;29079;41.930;25.558;2024-02-15T01:49:13;99937.09;;;7.18;81.77
7109;BME280;29079;41.930;25.558;2024-02-15T01:52:03;99933.56;;;7.17;79.88
7109;BME280;29079;41.930;25.558;2024-02-15T01:54:54;99944.63;;;7.24;81.93
7109;BME280;29079;41.930;25.558;2024-02-15T01:57:44;99946.31;;;7.12;79.64
7109;BME280;29079;41.930;25.558;2024-02-15T02:00:32;99911.91;;;6.97;78.62
7109;BME280;29079;41.930;25.558;2024-02-15T02:03:21;99911.47;;;7.04;79.14
7109;BME280;29079;41.930;25.558;2024-02-15T02:06:11;99933.25;;;7.22;79.25
7109;BME280;29079;41.930;25.558;2024-02-15T02:09:00;99942.31;;;7.32;79.63
7109;BME280;29079;41.930;25.558;2024-02-15T02:11:49;99938.28;;;7.26;79.84
7109;BME280;29079;41.930;25.558;2024-02-15T02:14:37;99936.13;;;7.19;79.43
7109;BME280;29079;41.930;25.558;2024-02-15T02:17:26;99941.31;;;6.94;78.47
7109;BME280;29079;41.930;25.558;2024-02-15T02:20:14;99939.16;;;6.87;77.15
7109;BME280;29079;41.930;25.558;2024-02-15T02:23:07;99943.22;;;7.05;78.26
7109;BME280;29079;41.930;25.558;2024-02-15T02:26:00;99950.06;;;6.82;77.54
7109;BME280;29079;41.930;25.558;2024-02-15T02:28:49;99943.66;;;6.99;78.29
7109;BME280;29079;41.930;25.558;2024-02-15T02:31:37;99951.53;;;7.13;82.48
7109;BME280;29079;41.930;25.558;2024-02-15T02:34:24;99926.34;;;6.93;80.72
7109;BME280;29079;41.930;25.558;2024-02-15T02:37:12;99922.16;;;6.76;79.94
7109;BME280;29079;41.930;25.558;2024-02-15T02:40:00;99963.41;;;7.08;78.40
7109;BME280;29079;41.930;25.558;2024-02-15T02:42:51;99944.88;;;6.80;80.03
7109;BME280;29079;41.930;25.558;2024-02-15T02:45:40;99953.38;;;6.86;78.97
7109;BME280;29079;41.930;25.558;2024-02-15T02:48:28;99962.63;;;6.93;79.36
7109;BME280;29079;41.930;25.558;2024-02-15T02:51:17;99969.41;;;6.84;79.21
7109;BME280;29079;41.930;25.558;2024-02-15T02:54:05;99961.38;;;7.11;84.23
7109;BME280;29079;41.930;25.558;2024-02-15T02:56:53;99964.56;;;7.04;78.50
7109;BME280;29079;41.930;25.558;2024-02-15T02:59:43;99962.59;;;6.80;78.78
7109;BME280;29079;41.930;25.558;2024-02-15T03:02:31;99953.66;;;6.68;81.52
7109;BME280;29079;41.930;25.558;2024-02-15T03:05:20;99952.09;;;6.78;79.00
7109;BME280;29079;41.930;25.558;2024-02-15T03:08:08;99952.47;;;6.72;80.03
7109;BME280;29079;41.930;25.558;2024-02-15T03:10:58;99950.94;;;6.83;79.55
7109;BME280;29079;41.930;25.558;2024-02-15T03:13:46;99960.44;;;6.72;78.77
7109;BME280;29079;41.930;25.558;2024-02-15T03:16:36;99943.25;;;6.65;79.39
7109;BME280;29079;41.930;25.558;2024-02-15T03:19:25;99969.00;;;6.90;81.22
7109;BME280;29079;41.930;25.558;2024-02-15T03:22:13;99947.16;;;6.72;79.81
7109;BME280;29079;41.930;25.558;2024-02-15T03:25:01;99961.38;;;6.99;80.80
7109;BME280;29079;41.930;25.558;2024-02-15T03:27:54;99960.09;;;6.91;78.53
7109;BME280;29079;41.930;25.558;2024-02-15T03:30:43;99964.22;;;6.95;78.41
7109;BME280;29079;41.930;25.558;2024-02-15T03:33:32;99920.31;;;6.64;78.55
7109;BME280;29079;41.930;25.558;2024-02-15T03:36:21;99967.38;;;6.88;78.92
7109;BME280;29079;41.930;25.558;2024-02-15T03:39:09;99968.69;;;6.95;79.43
7109;BME280;29079;41.930;25.558;2024-02-15T03:41:58;99968.63;;;6.82;82.76
7109;BME280;29079;41.930;25.558;2024-02-15T03:44:46;99975.25;;;6.62;79.22
7109;BME280;29079;41.930;25.558;2024-02-15T03:47:35;99955.53;;;6.66;84.42
7109;BME280;29079;41.930;25.558;2024-02-15T03:50:25;99968.63;;;6.55;80.51
7109;BME280;29079;41.930;25.558;2024-02-15T03:53:13;99967.34;;;6.75;84.27
7109;BME280;29079;41.930;25.558;2024-02-15T03:56:01;99966.59;;;6.45;80.14
7109;BME280;29079;41.930;25.558;2024-02-15T03:58:49;99967.69;;;6.56;82.85
7109;BME280;29079;41.930;25.558;2024-02-15T04:01:37;99968.22;;;6.75;80.67
7109;BME280;29079;41.930;25.558;2024-02-15T04:04:27;99970.41;;;6.69;80.64
7109;BME280;29079;41.930;25.558;2024-02-15T04:07:19;99968.00;;;6.78;83.03
7109;BME280;29079;41.930;25.558;2024-02-15T04:10:07;99977.56;;;6.54;87.35
7109;BME280;29079;41.930;25.558;2024-02-15T04:12:55;99969.50;;;6.83;83.20
7109;BME280;29079;41.930;25.558;2024-02-15T04:15:44;99973.50;;;6.48;80.91
7109;BME280;29079;41.930;25.558;2024-02-15T04:18:33;99965.25;;;6.80;84.66
7109;BME280;29079;41.930;25.558;2024-02-15T04:21:21;99964.63;;;6.49;80.96
7109;BME280;29079;41.930;25.558;2024-02-15T04:24:11;99964.09;;;6.57;81.91
7109;BME280;29079;41.930;25.558;2024-02-15T04:26:59;99968.09;;;6.50;80.37
7109;BME280;29079;41.930;25.558;2024-02-15T04:29:47;99978.66;;;6.64;86.53
7109;BME280;29079;41.930;25.558;2024-02-15T04:32:37;99982.00;;;6.53;83.20
7109;BME280;29079;41.930;25.558;2024-02-15T04:35:25;99929.78;;;5.99;80.36
7109;BME280;29079;41.930;25.558;2024-02-15T04:38:14;99986.50;;;6.38;86.00
7109;BME280;29079;41.930;25.558;2024-02-15T04:41:04;99973.53;;;6.34;80.77
7109;BME280;29079;41.930;25.558;2024-02-15T04:43:56;99990.84;;;6.54;80.10
7109;BME280;29079;41.930;25.558;2024-02-15T04:46:44;99989.56;;;6.18;80.46
7109;BME280;29079;41.930;25.558;2024-02-15T04:49:33;99970.94;;;6.05;81.10
7109;BME280;29079;41.930;25.558;2024-02-15T04:52:22;99984.91;;;6.36;87.08
7109;BME280;29079;41.930;25.558;2024-02-15T04:55:11;99973.28;;;6.09;83.65
7109;BME280;29079;41.930;25.558;2024-02-15T04:58:01;99988.63;;;6.19;81.34
7109;BME280;29079;41.930;25.558;2024-02-15T05:00:51;99992.13;;;6.05;82.24
7109;BME280;29079;41.930;25.558;2024-02-15T05:03:44;99999.34;;;6.03;81.08
7109;BME280;29079;41.930;25.558;2024-02-15T05:06:33;99982.88;;;6.12;85.91
7109;BME280;29079;41.930;25.558;2024-02-15T05:09:23;99999.41;;;6.16;81.11
7109;BME280;29079;41.930;25.558;2024-02-15T05:12:21;100014.81;;;5.95;81.43
7109;BME280;29079;41.930;25.558;2024-02-15T05:15:11;100010.66;;;5.90;83.48
7109;BME280;29079;41.930;25.558;2024-02-15T05:18:00;100014.28;;;6.04;81.88
7109;BME280;29079;41.930;25.558;2024-02-15T05:20:49;100001.00;;;5.89;81.45
7109;BME280;29079;41.930;25.558;2024-02-15T05:23:38;100012.19;;;5.95;82.26
7109;BME280;29079;41.930;25.558;2024-02-15T05:26:28;100017.38;;;5.67;83.59
7109;BME280;29079;41.930;25.558;2024-02-15T05:29:16;100020.41;;;5.75;83.76
7109;BME280;29079;41.930;25.558;2024-02-15T05:32:09;100022.88;;;5.79;82.07
7109;BME280;29079;41.930;25.558;2024-02-15T05:34:58;100019.16;;;5.67;82.92
7109;BME280;29079;41.930;25.558;2024-02-15T05:37:48;100019.38;;;5.78;86.46
7109;BME280;29079;41.930;25.558;2024-02-15T05:40:40;100029.09;;;5.92;85.82
7109;BME280;29079;41.930;25.558;2024-02-15T05:43:28;100029.28;;;5.60;83.03
7109;BME280;29079;41.930;25.558;2024-02-15T05:46:16;100032.69;;;5.62;83.02
7109;BME280;29079;41.930;25.558;2024-02-15T05:49:06;100043.22;;;5.78;86.31
7109;BME280;29079;41.930;25.558;2024-02-15T05:51:59;100042.38;;;6.06;82.90
7109;BME280;29079;41.930;25.558;2024-02-15T05:54:48;100037.06;;;5.92;84.06
7109;BME280;29079;41.930;25.558;2024-02-15T05:57:35;100031.47;;;5.82;81.78
7109;BME280;29079;41.930;25.558;2024-02-15T06:00:23;100055.28;;;5.82;80.01
7109;BME280;29079;41.930;25.558;2024-02-15T06:03:11;100055.00;;;6.03;80.68
7109;BME280;29079;41.930;25.558;2024-02-15T06:06:01;100055.94;;;6.02;79.89
7109;BME280;29079;41.930;25.558;2024-02-15T06:08:53;100052.00;;;5.93;80.32
7109;BME280;29079;41.930;25.558;2024-02-15T06:11:46;100061.31;;;6.15;81.32
7109;BME280;29079;41.930;25.558;2024-02-15T06:14:34;100069.66;;;6.08;80.10
7109;BME280;29079;41.930;25.558;2024-02-15T06:17:22;100072.47;;;6.05;79.45
7109;BME280;29079;41.930;25.558;2024-02-15T06:20:12;100065.66;;;6.16;80.88
7109;BME280;29079;41.930;25.558;2024-02-15T06:23:06;100070.41;;;6.39;84.56
7109;BME280;29079;41.930;25.558;2024-02-15T06:25:55;100065.66;;;6.30;83.49
7109;BME280;29079;41.930;25.558;2024-02-15T06:28:45;100082.03;;;6.51;81.58
7109;BME280;29079;41.930;25.558;2024-02-15T06:31:50;100007.63;;;5.82;79.87
7109;BME280;29079;41.930;25.558;2024-02-15T06:35:00;100083.94;;;6.35;79.36
7109;BME280;29079;41.930;25.558;2024-02-15T06:38:07;100092.84;;;6.34;78.19
7109;BME280;29079;41.930;25.558;2024-02-15T06:41:13;100074.69;;;6.13;79.42
7109;BME280;29079;41.930;25.558;2024-02-15T06:44:01;100098.44;;;6.15;78.44
7109;BME280;29079;41.930;25.558;2024-02-15T06:46:49;100101.34;;;6.39;82.79
7109;BME280;29079;41.930;25.558;2024-02-15T06:49:37;100096.53;;;6.17;79.79
7109;BME280;29079;41.930;25.558;2024-02-15T06:52:27;100095.16;;;5.95;79.86
7109;BME280;29079;41.930;25.558;2024-02-15T06:55:17;100098.91;;;5.91;80.02
7109;BME280;29079;41.930;25.558;2024-02-15T06:58:06;100105.88;;;6.08;81.14
7109;BME280;29079;41.930;25.558;2024-02-15T07:00:54;100104.47;;;6.45;82.69
7109;BME280;29079;41.930;25.558;2024-02-15T07:03:42;100100.22;;;6.28;79.94
7109;BME280;29079;41.930;25.558;2024-02-15T07:06:31;100096.91;;;6.10;82.71
7109;BME280;29079;41.930;25.558;2024-02-15T07:09:19;100084.31;;;6.14;83.28
7109;BME280;29079;41.930;25.558;2024-02-15T07:12:11;100104.84;;;6.10;82.54
7109;BME280;29079;41.930;25.558;2024-02-15T07:14:59;100098.63;;;6.26;82.55
7109;BME280;29079;41.930;25.558;2024-02-15T07:17:48;100107.09;;;6.02;82.58
7109;BME280;29079;41.930;25.558;2024-02-15T07:20:36;100073.06;;;6.25;83.97
7109;BME280;29079;41.930;25.558;2024-02-15T07:23:24;100074.28;;;6.19;81.51
7109;BME280;29079;41.930;25.558;2024-02-15T07:26:13;100108.34;;;6.54;86.92
7109;BME280;29079;41.930;25.558;2024-02-15T07:29:03;100100.78;;;6.48;82.57
7109;BME280;29079;41.930;25.558;2024-02-15T07:31:52;100110.06;;;6.55;81.49
7109;BME280;29079;41.930;25.558;2024-02-15T07:34:40;100109.16;;;6.69;82.76
7109;BME280;29079;41.930;25.558;2024-02-15T07:37:30;100109.66;;;6.76;82.04
7109;BME280;29079;41.930;25.558;2024-02-15T07:40:19;100093.66;;;6.63;81.63
7109;BME280;29079;41.930;25.558;2024-02-15T07:43:08;100113.34;;;6.59;80.97
7109;BME280;29079;41.930;25.558;2024-02-15T07:45:58;100116.00;;;6.73;81.78
7109;BME280;29079;41.930;25.558;2024-02-15T07:48:46;100104.75;;;6.70;80.61
7109;BME280;29079;41.930;25.558;2024-02-15T07:51:34;100119.66;;;6.85;80.81
7109;BME280;29079;41.930;25.558;2024-02-15T07:54:23;100111.91;;;6.82;79.51
7109;BME280;29079;41.930;25.558;2024-02-15T07:57:12;100116.91;;;6.87;78.97
7109;BME280;29079;41.930;25.558;2024-02-15T08:00:00;100115.16;;;7.14;80.02
7109;BME280;29079;41.930;25.558;2024-02-15T08:02:53;100111.19;;;7.07;79.24
7109;BME280;29079;41.930;25.558;2024-02-15T08:05:41;100111.88;;;7.24;79.31
7109;BME280;29079;41.930;25.558;2024-02-15T08:08:29;100115.31;;;7.11;78.24
7109;BME280;29079;41.930;25.558;2024-02-15T08:11:17;100106.81;;;7.34;80.45
7109;BME280;29079;41.930;25.558;2024-02-15T08:14:06;100101.19;;;7.38;79.86
7109;BME280;29079;41.930;25.558;2024-02-15T08:16:59;100102.34;;;7.07;77.13
7109;BME280;29079;41.930;25.558;2024-02-15T08:19:49;100108.13;;;7.13;79.71
7109;BME280;29079;41.930;25.558;2024-02-15T08:22:37;100094.94;;;7.52;77.49
7109;BME280;29079;41.930;25.558;2024-02-15T08:25:25;100093.94;;;7.80;75.23
7109;BME280;29079;41.930;25.558;2024-02-15T08:28:13;100091.53;;;7.90;72.87
7109;BME280;29079;41.930;25.558;2024-02-15T08:31:01;100097.91;;;8.00;74.64
7109;BME280;29079;41.930;25.558;2024-02-15T08:33:50;100095.25;;;8.13;72.66
7109;BME280;29079;41.930;25.558;2024-02-15T08:36:41;100090.00;;;8.37;73.95
7109;BME280;29079;41.930;25.558;2024-02-15T08:39:29;100083.31;;;8.32;71.69
7109;BME280;29079;41.930;25.558;2024-02-15T08:42:17;100090.53;;;8.43;70.59
7109;BME280;29079;41.930;25.558;2024-02-15T08:45:10;100063.84;;;8.18;72.82
7109;BME280;29079;41.930;25.558;2024-02-15T08:47:59;100082.69;;;8.28;72.30
7109;BME280;29079;41.930;25.558;2024-02-15T08:50:51;100082.34;;;8.59;72.30
7109;BME280;29079;41.930;25.558;2024-02-15T08:53:40;100084.66;;;8.63;69.72
7109;BME280;29079;41.930;25.558;2024-02-15T08:56:28;100096.88;;;8.79;69.18
7109;BME280;29079;41.930;25.558;2024-02-15T08:59:16;100097.66;;;8.55;69.33
7109;BME280;29079;41.930;25.558;2024-02-15T09:02:05;100091.94;;;8.48;70.47
7109;BME280;29079;41.930;25.558;2024-02-15T09:04:53;100084.78;;;8.62;69.86
7109;BME280;29079;41.930;25.558;2024-02-15T09:07:41;100084.91;;;8.60;68.77
7109;BME280;29079;41.930;25.558;2024-02-15T09:10:31;100075.47;;;8.80;69.72
7109;BME280;29079;41.930;25.558;2024-02-15T09:13:19;100082.91;;;9.12;67.69
7109;BME280;29079;41.930;25.558;2024-02-15T09:16:09;100081.03;;;9.01;67.60
7109;BME280;29079;41.930;25.558;2024-02-15T09:18:58;100080.84;;;8.92;68.25
7109;BME280;29079;41.930;25.558;2024-02-15T09:21:48;100081.31;;;8.85;68.85
7109;BME280;29079;41.930;25.558;2024-02-15T09:24:37;100077.88;;;8.96;68.25
7109;BME280;29079;41.930;25.558;2024-02-15T09:27:26;100064.50;;;9.09;67.40
7109;BME280;29079;41.930;25.558;2024-02-15T09:30:15;100073.44;;;9.08;67.20
7109;BME280;29079;41.930;25.558;2024-02-15T09:33:04;100055.53;;;9.34;66.77
7109;BME280;29079;41.930;25.558;2024-02-15T09:35:53;100068.06;;;9.21;66.19
7109;BME280;29079;41.930;25.558;2024-02-15T09:38:41;100053.97;;;9.43;65.97
7109;BME280;29079;41.930;25.558;2024-02-15T09:41:30;100065.22;;;9.35;67.88
7109;BME280;29079;41.930;25.558;2024-02-15T09:44:20;100059.72;;;9.26;68.42
7109;BME280;29079;41.930;25.558;2024-02-15T09:47:08;100065.56;;;9.06;67.39
7109;BME280;29079;41.930;25.558;2024-02-15T09:49:59;100013.09;;;8.96;67.94
7109;BME280;29079;41.930;25.558;2024-02-15T09:52:49;100048.44;;;9.22;69.02
7109;BME280;29079;41.930;25.558;2024-02-15T09:55:39;100056.94;;;9.27;68.11
7109;BME280;29079;41.930;25.558;2024-02-15T09:58:28;100058.25;;;9.21;67.71
7109;BME280;29079;41.930;25.558;2024-02-15T10:01:23;100055.31;;;9.13;67.85
7109;BME280;29079;41.930;25.558;2024-02-15T10:04:13;100042.38;;;8.96;68.93
7109;BME280;29079;41.930;25.558;2024-02-15T10:07:03;100045.06;;;9.20;70.39
7109;BME280;29079;41.930;25.558;2024-02-15T10:09:51;100036.00;;;8.98;67.43
7109;BME280;29079;41.930;25.558;2024-02-15T10:12:39;100041.97;;;9.02;68.48
7109;BME280;29079;41.930;25.558;2024-02-15T10:15:28;99990.31;;;8.80;69.99
7109;BME280;29079;41.930;25.558;2024-02-15T10:18:21;99986.50;;;8.96;69.79
7109;BME280;29079;41.930;25.558;2024-02-15T10:21:09;100027.28;;;9.32;70.14
7109;BME280;29079;41.930;25.558;2024-02-15T10:24:04;100023.41;;;9.24;69.02
7109;BME280;29079;41.930;25.558;2024-02-15T10:27:00;100010.91;;;9.14;68.97
7109;BME280;29079;41.930;25.558;2024-02-15T10:29:50;100023.63;;;9.21;68.27
7109;BME280;29079;41.930;25.558;2024-02-15T10:32:39;100000.38;;;9.23;66.88
7109;BME280;29079;41.930;25.558;2024-02-15T10:35:30;100020.72;;;9.60;65.92
7109;BME280;29079;41.930;25.558;2024-02-15T10:38:25;100023.22;;;9.39;67.51
7109;BME280;29079;41.930;25.558;2024-02-15T10:41:14;99982.25;;;9.29;66.79
7109;BME280;29079;41.930;25.558;2024-02-15T10:44:03;100015.16;;;9.28;66.91
7109;BME280;29079;41.930;25.558;2024-02-15T10:46:52;100000.28;;;9.25;67.67
7109;BME280;29079;41.930;25.558;2024-02-15T10:49:40;99960.94;;;9.29;67.43
7109;BME280;29079;41.930;25.558;2024-02-15T10:52:37;100012.84;;;9.70;66.50
7109;BME280;29079;41.930;25.558;2024-02-15T10:55:38;99943.19;;;8.94;66.09
7109;BME280;29079;41.930;25.558;2024-02-15T10:58:32;100014.78;;;9.56;66.49
7109;BME280;29079;41.930;25.558;2024-02-15T11:01:22;100012.22;;;9.55;65.93
7109;BME280;29079;41.930;25.558;2024-02-15T11:04:14;100008.50;;;9.69;65.70
7109;BME280;29079;41.930;25.558;2024-02-15T11:07:04;99990.59;;;9.82;67.00
7109;BME280;29079;41.930;25.558;2024-02-15T11:09:56;100009.16;;;10.06;64.40
7109;BME280;29079;41.930;25.558;2024-02-15T11:12:44;100008.16;;;10.07;65.07
7109;BME280;29079;41.930;25.558;2024-02-15T11:15:41;99995.06;;;9.70;65.75
7109;BME280;29079;41.930;25.558;2024-02-15T11:18:43;99983.91;;;9.76;67.29
7109;BME280;29079;41.930;25.558;2024-02-15T11:21:55;99969.00;;;9.74;67.34
7109;BME280;29079;41.930;25.558;2024-02-15T11:24:48;99995.06;;;9.93;65.27
7109;BME280;29079;41.930;25.558;2024-02-15T11:27:38;100004.16;;;10.02;65.21
7109;BME280;29079;41.930;25.558;2024-02-15T11:30:32;99987.69;;;9.85;64.63
7109;BME280;29079;41.930;25.558;2024-02-15T11:33:29;99994.97;;;9.83;65.50
7109;BME280;29079;41.930;25.558;2024-02-15T11:36:30;99981.00;;;9.68;66.11
7109;BME280;29079;41.930;25.558;2024-02-15T11:39:43;99979.53;;;9.64;65.49
7109;BME280;29079;41.930;25.558;2024-02-15T11:42:35;99974.34;;;9.74;66.01
7109;BME280;29079;41.930;25.558;2024-02-15T11:45:25;99976.28;;;9.72;65.15
7109;BME280;29079;41.930;25.558;2024-02-15T11:48:19;99970.09;;;9.60;64.22
7109;BME280;29079;41.930;25.558;2024-02-15T11:51:08;99981.84;;;9.69;65.90
7109;BME280;29079;41.930;25.558;2024-02-15T11:54:02;99980.16;;;9.68;64.73
7109;BME280;29079;41.930;25.558;2024-02-15T11:56:54;99986.97;;;9.83;65.47
7109;BME280;29079;41.930;25.558;2024-02-15T11:59:52;99978.47;;;9.89;64.71
7109;BME280;29079;41.930;25.558;2024-02-15T12:03:00;99974.59;;;9.93;67.03
7109;BME280;29079;41.930;25.558;2024-02-15T12:06:06;99976.41;;;9.82;65.45
7109;BME280;29079;41.930;25.558;2024-02-15T12:09:12;99975.28;;;9.73;65.64
7109;BME280;29079;41.930;25.558;2024-02-15T12:12:18;99972.41;;;9.76;65.15
7109;BME280;29079;41.930;25.558;2024-02-15T12:15:24;99958.72;;;9.69;67.04
7109;BME280;29079;41.930;25.558;2024-02-15T12:18:31;99973.88;;;9.69;65.46
7109;BME280;29079;41.930;25.558;2024-02-15T12:21:30;99906.50;;;9.44;65.95
7109;BME280;29079;41.930;25.558;2024-02-15T12:24:20;99972.75;;;9.83;65.62
7109;BME280;29079;41.930;25.558;2024-02-15T12:27:13;99969.63;;;9.78;67.43
7109;BME280;29079;41.930;25.558;2024-02-15T12:30:04;99965.63;;;9.72;65.39
7109;BME280;29079;41.930;25.558;2024-02-15T12:33:08;99967.91;;;9.76;65.73
7109;BME280;29079;41.930;25.558;2024-02-15T12:36:05;99959.31;;;9.73;65.20
7109;BME280;29079;41.930;25.558;2024-02-15T12:38:59;99966.97;;;9.78;67.51
7109;BME280;29079;41.930;25.558;2024-02-15T12:41:48;99953.84;;;9.97;70.15
7109;BME280;29079;41.930;25.558;2024-02-15T12:44:44;99960.66;;;9.90;65.08
7109;BME280;29079;41.930;25.558;2024-02-15T12:47:34;99960.78;;;9.88;64.95
7109;BME280;29079;41.930;25.558;2024-02-15T12:50:23;99947.81;;;9.84;65.57
7109;BME280;29079;41.930;25.558;2024-02-15T12:53:13;99956.06;;;9.92;64.79
7109;BME280;29079;41.930;25.558;2024-02-15T12:56:08;99956.66;;;9.84;65.14
7109;BME280;29079;41.930;25.558;2024-02-15T12:58:56;99953.50;;;9.79;64.43
7109;BME280;29079;41.930;25.558;2024-02-15T13:01:45;99938.97;;;9.72;65.28
7109;BME280;29079;41.930;25.558;2024-02-15T13:04:34;99960.78;;;9.88;64.72
7109;BME280;29079;41.930;25.558;2024-02-15T13:07:23;99966.84;;;9.90;64.24
7109;BME280;29079;41.930;25.558;2024-02-15T13:10:13;99950.59;;;9.82;67.40
7109;BME280;29079;41.930;25.558;2024-02-15T13:13:02;99960.41;;;9.93;64.88
7109;BME280;29079;41.930;25.558;2024-02-15T13:15:50;99959.81;;;9.89;64.48
7109;BME280;29079;41.930;25.558;2024-02-15T13:18:39;99959.81;;;9.78;64.24
7109;BME280;29079;41.930;25.558;2024-02-15T13:21:28;99960.06;;;9.75;64.41
7109;BME280;29079;41.930;25.558;2024-02-15T13:24:17;99946.47;;;9.67;64.53
7109;BME280;29079;41.930;25.558;2024-02-15T13:27:07;99958.09;;;9.77;64.94
7109;BME280;29079;41.930;25.558;2024-02-15T13:29:57;99955.56;;;9.87;66.69
7109;BME280;29079;41.930;25.558;2024-02-15T13:32:45;99959.44;;;9.94;65.52
7109;BME280;29079;41.930;25.558;2024-02-15T13:35:33;99961.03;;;9.85;66.29
7109;BME280;29079;41.930;25.558;2024-02-15T13:38:23;99961.41;;;9.92;67.31
7109;BME280;29079;41.930;25.558;2024-02-15T13:41:11;99952.91;;;9.87;65.87
7109;BME280;29079;41.930;25.558;2024-02-15T13:44:00;99953.50;;;9.79;65.39
7109;BME280;29079;41.930;25.558;2024-02-15T13:46:48;99954.09;;;9.83;64.90
7109;BME280;29079;41.930;25.558;2024-02-15T13:49:36;99960.19;;;9.85;65.43
7109;BME280;29079;41.930;25.558;2024-02-15T13:52:24;99950.09;;;9.88;65.86
7109;BME280;29079;41.930;25.558;2024-02-15T13:55:14;99949.63;;;9.83;65.84
7109;BME280;29079;41.930;25.558;2024-02-15T13:58:03;99960.78;;;9.88;65.99
7109;BME280;29079;41.930;25.558;2024-02-15T14:00:52;99959.44;;;9.83;65.92
7109;BME280;29079;41.930;25.558;2024-02-15T14:03:40;99971.56;;;9.87;66.01
7109;BME280;29079;41.930;25.558;2024-02-15T14:06:29;99961.84;;;9.86;65.54
7109;BME280;29079;41.930;25.558;2024-02-15T14:09:18;99968.41;;;9.93;68.59
7109;BME280;29079;41.930;25.558;2024-02-15T14:12:06;99963.06;;;10.04;67.03
7109;BME280;29079;41.930;25.558;2024-02-15T14:14:54;99970.47;;;10.01;66.03
7109;BME280;29079;41.930;25.558;2024-02-15T14:17:44;99957.28;;;9.88;64.29
7109;BME280;29079;41.930;25.558;2024-02-15T14:20:33;99972.41;;;9.99;64.09
7109;BME280;29079;41.930;25.558;2024-02-15T14:23:21;99970.34;;;10.02;64.79
7109;BME280;29079;41.930;25.558;2024-02-15T14:26:14;99978.94;;;10.06;66.68
7109;BME280;29079;41.930;25.558;2024-02-15T14:29:03;99977.03;;;10.08;68.22
7109;BME280;29079;41.930;25.558;2024-02-15T14:31:53;99947.56;;;9.98;67.59
7109;BME280;29079;41.930;25.558;2024-02-15T14:35:13;99973.16;;;10.01;64.68
7109;BME280;29079;41.930;25.558;2024-02-15T14:38:04;99978.72;;;9.98;65.04
7109;BME280;29079;41.930;25.558;2024-02-15T14:40:55;99961.16;;;9.95;65.18
7109;BME280;29079;41.930;25.558;2024-02-15T14:43:45;99978.47;;;10.01;66.73
7109;BME280;29079;41.930;25.558;2024-02-15T14:46:33;99982.56;;;10.05;68.05
7109;BME280;29079;41.930;25.558;2024-02-15T14:49:22;99982.47;;;9.95;64.96
7109;BME280;29079;41.930;25.558;2024-02-15T14:52:12;99974.94;;;9.89;65.08
7109;BME280;29079;41.930;25.558;2024-02-15T14:55:01;99984.63;;;9.90;66.91
7109;BME280;29079;41.930;25.558;2024-02-15T14:57:53;99965.25;;;9.65;66.77
7109;BME280;29079;41.930;25.558;2024-02-15T15:00:49;99988.03;;;9.81;64.93
7109;BME280;29079;41.930;25.558;2024-02-15T15:03:53;99979.41;;;9.77;65.63
7109;BME280;29079;41.930;25.558;2024-02-15T15:06:44;99967.22;;;9.74;66.68
7109;BME280;29079;41.930;25.558;2024-02-15T15:09:51;99979.31;;;9.67;64.89
7109;BME280;29079;41.930;25.558;2024-02-15T15:13:02;99987.91;;;9.71;65.23